sensor_id;sensor_type;location;lat;lon;timestamp;pressure;altitude;pressure_sealevel;temperature;humidity
36234;BME280;43467;50.890;5.982;2023-02-13T00:02:14;102200.91;;;8.47;76.88
36234;BME280;43467;50.890;5.982;2023-02-13T00:04:40;102196.50;;;8.45;76.13
36234;BME280;43467;50.890;5.982;2023-02-13T00:07:07;102194.72;;;8.45;76.27
36234;BME280;43467;50.890;5.982;2023-02-13T00:09:33;102200.84;;;8.53;76.60
36234;BME280;43467;50.890;5.982;2023-02-13T00:11:58;102201.78;;;8.43;76.77
36234;BME280;43467;50.890;5.982;2023-02-13T00:14:23;102203.53;;;8.39;76.80
36234;BME280;43467;50.890;5.982;2023-02-13T00:16:49;102202.72;;;8.33;76.90
36234;BME280;43467;50.890;5.982;2023-02-13T00:19:14;102195.59;;;8.44;77.02
36234;BME280;43467;50.890;5.982;2023-02-13T00:21:40;102196.53;;;8.38;76.54
36234;BME280;43467;50.890;5.982;2023-02-13T00:24:06;102197.41;;;8.44;76.13
36234;BME280;43467;50.890;5.982;2023-02-13T00:26:32;102193.84;;;8.45;76.21
36234;BME280;43467;50.890;5.982;2023-02-13T00:28:57;102198.25;;;8.47;76.06
36234;BME280;43467;50.890;5.982;2023-02-13T00:31:22;102191.25;;;8.43;75.69
36234;BME280;43467;50.890;5.982;2023-02-13T00:33:48;102199.09;;;8.49;75.48
36234;BME280;43467;50.890;5.982;2023-02-13T00:36:17;102191.22;;;8.45;75.17
36234;BME280;43467;50.890;5.982;2023-02-13T00:38:43;102189.47;;;8.42;74.76
36234;BME280;43467;50.890;5.982;2023-02-13T00:41:09;102200.06;;;8.37;74.63
36234;BME280;43467;50.890;5.982;2023-02-13T00:43:35;102188.66;;;8.31;74.74
36234;BME280;43467;50.890;5.982;2023-02-13T00:46:00;102192.16;;;8.27;74.50
36234;BME280;43467;50.890;5.982;2023-02-13T00:48:28;102193.91;;;8.25;74.61
36234;BME280;43467;50.890;5.982;2023-02-13T00:50:54;102182.50;;;8.26;75.06
36234;BME280;43467;50.890;5.982;2023-02-13T00:53:22;102174.63;;;8.17;75.25
36234;BME280;43467;50.890;5.982;2023-02-13T00:55:48;102179.88;;;8.23;74.75
36234;BME280;43467;50.890;5.982;2023-02-13T00:58:14;102174.59;;;8.20;74.46
36234;BME280;43467;50.890;5.982;2023-02-13T01:00:40;102173.78;;;8.10;75.18
36234;BME280;43467;50.890;5.982;2023-02-13T01:03:05;102179.06;;;8.09;75.86
36234;BME280;43467;50.890;5.982;2023-02-13T01:05:31;102178.19;;;8.04;76.47
36234;BME280;43467;50.890;5.982;2023-02-13T01:07:57;102169.38;;;8.09;76.64
36234;BME280;43467;50.890;5.982;2023-02-13T01:10:22;102169.38;;;8.03;76.57
36234;BME280;43467;50.890;5.982;2023-02-13T01:12:48;102169.44;;;7.95;77.30
36234;BME280;43467;50.890;5.982;2023-02-13T01:15:13;102165.03;;;7.98;77.15
36234;BME280;43467;50.890;5.982;2023-02-13T01:17:39;102162.44;;;7.94;77.20
36234;BME280;43467;50.890;5.982;2023-02-13T01:20:09;102169.41;;;8.00;77.48
36234;BME280;43467;50.890;5.982;2023-02-13T01:22:35;102167.66;;;7.96;77.40
36234;BME280;43467;50.890;5.982;2023-02-13T01:25:01;102162.44;;;7.90;78.05
36234;BME280;43467;50.890;5.982;2023-02-13T01:27:27;102173.81;;;8.00;78.28
36234;BME280;43467;50.890;5.982;2023-02-13T01:29:53;102169.44;;;7.99;78.34
36234;BME280;43467;50.890;5.982;2023-02-13T01:32:18;102174.75;;;7.89;78.08
36234;BME280;43467;50.890;5.982;2023-02-13T01:34:44;102170.34;;;7.94;78.22
36234;BME280;43467;50.890;5.982;2023-02-13T01:37:09;102170.31;;;7.96;78.35
36234;BME280;43467;50.890;5.982;2023-02-13T01:39:35;102158.00;;;7.97;78.05
36234;BME280;43467;50.890;5.982;2023-02-13T01:42:00;102178.19;;;8.05;77.71
36234;BME280;43467;50.890;5.982;2023-02-13T01:44:52;102165.88;;;8.00;77.48
36234;BME280;43467;50.890;5.982;2023-02-13T01:50:03;102174.63;;;8.14;77.05
36234;BME280;43467;50.890;5.982;2023-02-13T01:52:31;102164.09;;;8.08;76.65
36234;BME280;43467;50.890;5.982;2023-02-13T01:54:57;102172.00;;;8.09;76.47
36234;BME280;43467;50.890;5.982;2023-02-13T01:57:24;102168.47;;;8.12;76.37
36234;BME280;43467;50.890;5.982;2023-02-13T02:00:02;102169.41;;;8.02;76.53
36234;BME280;43467;50.890;5.982;2023-02-13T02:02:30;102171.19;;;8.01;76.84
36234;BME280;43467;50.890;5.982;2023-02-13T02:04:58;102170.28;;;8.07;77.09
36234;BME280;43467;50.890;5.982;2023-02-13T02:07:26;102169.38;;;8.08;76.98
36234;BME280;43467;50.890;5.982;2023-02-13T02:09:57;102170.28;;;8.04;76.33
36234;BME280;43467;50.890;5.982;2023-02-13T02:13:06;102154.47;;;7.96;75.96
36234;BME280;43467;50.890;5.982;2023-02-13T02:15:34;102169.44;;;7.91;75.82
36234;BME280;43467;50.890;5.982;2023-02-13T02:18:00;102172.06;;;7.97;77.33
36234;BME280;43467;50.890;5.982;2023-02-13T02:20:30;102165.97;;;7.84;75.79
36234;BME280;43467;50.890;5.982;2023-02-13T02:23:36;102167.72;;;7.79;74.68
36234;BME280;43467;50.890;5.982;2023-02-13T02:29:46;102177.44;;;7.73;75.11
36234;BME280;43467;50.890;5.982;2023-02-13T02:32:30;102176.56;;;7.69;74.62
36234;BME280;43467;50.890;5.982;2023-02-13T02:40:53;102174.81;;;7.68;75.20
36234;BME280;43467;50.890;5.982;2023-02-13T02:43:33;102170.44;;;7.64;74.44
36234;BME280;43467;50.890;5.982;2023-02-13T02:48:31;102173.09;;;7.49;73.95
36234;BME280;43467;50.890;5.982;2023-02-13T02:51:26;102177.50;;;7.48;73.53
36234;BME280;43467;50.890;5.982;2023-02-13T02:54:13;102180.16;;;7.41;73.92
36234;BME280;43467;50.890;5.982;2023-02-13T02:57:05;102179.28;;;7.31;74.79
36234;BME280;43467;50.890;5.982;2023-02-13T02:59:32;102176.63;;;7.36;74.62
36234;BME280;43467;50.890;5.982;2023-02-13T03:02:18;102174.00;;;7.30;74.46
36234;BME280;43467;50.890;5.982;2023-02-13T03:05:03;102180.19;;;7.21;75.50
36234;BME280;43467;50.890;5.982;2023-02-13T03:07:54;102180.19;;;7.24;74.28
36234;BME280;43467;50.890;5.982;2023-02-13T03:10:27;102164.38;;;7.24;74.69
36234;BME280;43467;50.890;5.982;2023-02-13T03:13:17;102173.13;;;7.22;74.64
36234;BME280;43467;50.890;5.982;2023-02-13T03:15:59;102161.72;;;7.18;74.34
36234;BME280;43467;50.890;5.982;2023-02-13T03:18:46;102169.63;;;7.18;73.90
36234;BME280;43467;50.890;5.982;2023-02-13T03:32:59;102163.50;;;7.09;74.10
36234;BME280;43467;50.890;5.982;2023-02-13T03:35:49;102162.63;;;7.07;73.70
36234;BME280;43467;50.890;5.982;2023-02-13T03:38:56;102168.78;;;6.96;74.05
36234;BME280;43467;50.890;5.982;2023-02-13T03:41:29;102167.91;;;6.91;74.31
36234;BME280;43467;50.890;5.982;2023-02-13T03:44:26;102169.63;;;6.94;73.60
36234;BME280;43467;50.890;5.982;2023-02-13T03:46:58;102167.91;;;6.91;74.36
36234;BME280;43467;50.890;5.982;2023-02-13T03:49:30;102168.75;;;6.89;73.61
36234;BME280;43467;50.890;5.982;2023-02-13T03:53:09;102168.75;;;6.90;73.39
36234;BME280;43467;50.890;5.982;2023-02-13T03:55:19;102175.78;;;6.93;73.72
36234;BME280;43467;50.890;5.982;2023-02-13T03:58:16;102171.41;;;6.90;73.46
36234;BME280;43467;50.890;5.982;2023-02-13T04:01:03;102172.28;;;6.88;73.67
36234;BME280;43467;50.890;5.982;2023-02-13T04:06:12;102181.06;;;6.88;73.35
36234;BME280;43467;50.890;5.982;2023-02-13T04:08:38;102180.16;;;6.82;72.47
36234;BME280;43467;50.890;5.982;2023-02-13T04:11:09;102186.31;;;6.85;73.14
36234;BME280;43467;50.890;5.982;2023-02-13T04:13:47;102181.94;;;6.84;72.41
36234;BME280;43467;50.890;5.982;2023-02-13T04:16:18;102181.03;;;6.81;72.96
36234;BME280;43467;50.890;5.982;2023-02-13T04:18:46;102173.13;;;6.73;74.23
36234;BME280;43467;50.890;5.982;2023-02-13T04:21:12;102188.06;;;6.79;74.13
36234;BME280;43467;50.890;5.982;2023-02-13T04:23:38;102182.78;;;6.77;74.14
36234;BME280;43467;50.890;5.982;2023-02-13T04:26:07;102186.31;;;6.75;74.14
36234;BME280;43467;50.890;5.982;2023-02-13T04:28:33;102173.13;;;6.69;74.27
36234;BME280;43467;50.890;5.982;2023-02-13T04:30:59;102180.16;;;6.73;73.76
36234;BME280;43467;50.890;5.982;2023-02-13T04:33:24;102174.03;;;6.72;73.25
36234;BME280;43467;50.890;5.982;2023-02-13T04:35:50;102184.56;;;6.71;73.94
36234;BME280;43467;50.890;5.982;2023-02-13T04:38:15;102182.81;;;6.68;73.66
36234;BME280;43467;50.890;5.982;2023-02-13T04:40:41;102182.81;;;6.68;73.90
36234;BME280;43467;50.890;5.982;2023-02-13T04:43:06;102181.03;;;6.69;73.93
36234;BME280;43467;50.890;5.982;2023-02-13T04:45:31;102179.28;;;6.62;73.60
36234;BME280;43467;50.890;5.982;2023-02-13T04:47:57;102174.88;;;6.58;73.64
36234;BME280;43467;50.890;5.982;2023-02-13T04:50:24;102181.91;;;6.62;74.04
36234;BME280;43467;50.890;5.982;2023-02-13T04:52:54;102177.53;;;6.62;75.06
36234;BME280;43467;50.890;5.982;2023-02-13T04:55:21;102177.53;;;6.68;74.34
36234;BME280;43467;50.890;5.982;2023-02-13T04:57:46;102168.72;;;6.65;73.94
36234;BME280;43467;50.890;5.982;2023-02-13T05:00:12;102173.13;;;6.60;74.12
36234;BME280;43467;50.890;5.982;2023-02-13T05:02:38;102174.00;;;6.66;74.23
36234;BME280;43467;50.890;5.982;2023-02-13T05:05:03;102174.03;;;6.63;73.60
36234;BME280;43467;50.890;5.982;2023-02-13T05:07:29;102171.38;;;6.60;72.79
36234;BME280;43467;50.890;5.982;2023-02-13T05:09:54;102174.91;;;6.71;73.28
36234;BME280;43467;50.890;5.982;2023-02-13T05:12:20;102174.00;;;6.66;72.86
36234;BME280;43467;50.890;5.982;2023-02-13T05:14:45;102152.06;;;6.49;72.86
36234;BME280;43467;50.890;5.982;2023-02-13T05:17:10;102170.47;;;6.53;72.51
36234;BME280;43467;50.890;5.982;2023-02-13T05:19:36;102170.50;;;6.52;72.90
36234;BME280;43467;50.890;5.982;2023-02-13T05:22:01;102167.84;;;6.49;72.73
36234;BME280;43467;50.890;5.982;2023-02-13T05:24:45;102169.59;;;6.48;72.89
36234;BME280;43467;50.890;5.982;2023-02-13T05:27:10;102163.47;;;6.43;73.42
36234;BME280;43467;50.890;5.982;2023-02-13T05:29:36;102173.97;;;6.37;73.59
36234;BME280;43467;50.890;5.982;2023-02-13T05:32:01;102168.72;;;6.39;73.49
36234;BME280;43467;50.890;5.982;2023-02-13T05:34:27;102177.50;;;6.39;73.53
36234;BME280;43467;50.890;5.982;2023-02-13T05:36:53;102177.47;;;6.41;73.48
36234;BME280;43467;50.890;5.982;2023-02-13T05:39:19;102175.75;;;6.43;73.05
36234;BME280;43467;50.890;5.982;2023-02-13T05:41:45;102184.50;;;6.39;73.26
36234;BME280;43467;50.890;5.982;2023-02-13T05:44:11;102178.34;;;6.34;73.77
36234;BME280;43467;50.890;5.982;2023-02-13T05:46:39;102180.94;;;6.25;73.42
36234;BME280;43467;50.890;5.982;2023-02-13T05:49:06;102171.28;;;6.18;74.11
36234;BME280;43467;50.890;5.982;2023-02-13T05:51:31;102185.28;;;6.17;73.89
36234;BME280;43467;50.890;5.982;2023-02-13T05:53:57;102178.31;;;6.25;73.92
36234;BME280;43467;50.890;5.982;2023-02-13T05:56:22;102184.44;;;6.22;73.95
36234;BME280;43467;50.890;5.982;2023-02-13T05:58:52;102167.78;;;6.22;73.94
36234;BME280;43467;50.890;5.982;2023-02-13T06:01:18;102173.81;;;5.99;74.44
36234;BME280;43467;50.890;5.982;2023-02-13T06:03:43;102158.94;;;5.91;75.17
36234;BME280;43467;50.890;5.982;2023-02-13T06:06:09;102163.22;;;5.84;75.63
36234;BME280;43467;50.890;5.982;2023-02-13T06:08:34;102169.34;;;5.80;75.65
36234;BME280;43467;50.890;5.982;2023-02-13T06:11:00;102171.13;;;5.86;75.64
36234;BME280;43467;50.890;5.982;2023-02-13T06:13:25;102166.81;;;5.94;75.04
36234;BME280;43467;50.890;5.982;2023-02-13T06:15:51;102162.34;;;5.84;74.88
36234;BME280;43467;50.890;5.982;2023-02-13T06:18:16;102163.31;;;5.95;74.88
36234;BME280;43467;50.890;5.982;2023-02-13T06:20:42;102149.28;;;5.93;74.38
36234;BME280;43467;50.890;5.982;2023-02-13T06:23:07;102162.41;;;5.91;74.65
36234;BME280;43467;50.890;5.982;2023-02-13T06:25:35;102159.78;;;5.91;74.88
36234;BME280;43467;50.890;5.982;2023-02-13T06:28:01;102164.09;;;5.80;75.00
36234;BME280;43467;50.890;5.982;2023-02-13T06:30:27;102167.63;;;5.82;75.51
36234;BME280;43467;50.890;5.982;2023-02-13T06:32:53;102165.81;;;5.77;75.89
36234;BME280;43467;50.890;5.982;2023-02-13T06:35:18;102159.66;;;5.75;76.34
36234;BME280;43467;50.890;5.982;2023-02-13T06:37:44;102157.97;;;5.81;76.05
36234;BME280;43467;50.890;5.982;2023-02-13T06:40:10;102157.16;;;5.87;75.80
36234;BME280;43467;50.890;5.982;2023-02-13T06:42:36;102156.28;;;5.91;75.78
36234;BME280;43467;50.890;5.982;2023-02-13T06:45:02;102158.97;;;6.07;75.61
36234;BME280;43467;50.890;5.982;2023-02-13T06:47:28;102152.84;;;6.07;75.33
36234;BME280;43467;50.890;5.982;2023-02-13T06:49:53;102147.59;;;6.15;75.20
36234;BME280;43467;50.890;5.982;2023-02-13T06:52:19;102163.38;;;6.18;75.28
36234;BME280;43467;50.890;5.982;2023-02-13T06:54:44;102144.06;;;6.16;74.86
36234;BME280;43467;50.890;5.982;2023-02-13T06:57:10;102153.75;;;6.26;74.84
36234;BME280;43467;50.890;5.982;2023-02-13T06:59:35;102152.00;;;6.22;74.44
36234;BME280;43467;50.890;5.982;2023-02-13T07:02:00;102161.66;;;6.21;74.78
36234;BME280;43467;50.890;5.982;2023-02-13T07:04:27;102157.28;;;6.32;74.33
36234;BME280;43467;50.890;5.982;2023-02-13T07:06:56;102156.41;;;6.30;74.18
36234;BME280;43467;50.890;5.982;2023-02-13T07:09:22;102155.53;;;6.30;74.11
36234;BME280;43467;50.890;5.982;2023-02-13T07:11:48;102159.03;;;6.32;74.46
36234;BME280;43467;50.890;5.982;2023-02-13T07:14:14;102154.66;;;6.34;74.31
36234;BME280;43467;50.890;5.982;2023-02-13T07:16:39;102156.44;;;6.35;73.99
36234;BME280;43467;50.890;5.982;2023-02-13T07:19:04;102152.91;;;6.33;73.85
36234;BME280;43467;50.890;5.982;2023-02-13T07:21:30;102119.53;;;6.09;73.79
36234;BME280;43467;50.890;5.982;2023-02-13T07:23:55;102158.16;;;6.40;73.56
36234;BME280;43467;50.890;5.982;2023-02-13T07:26:21;102154.66;;;6.37;73.62
36234;BME280;43467;50.890;5.982;2023-02-13T07:28:46;102162.56;;;6.35;73.63
36234;BME280;43467;50.890;5.982;2023-02-13T07:31:11;102159.06;;;6.39;73.73
36234;BME280;43467;50.890;5.982;2023-02-13T07:33:37;102164.31;;;6.36;73.53
36234;BME280;43467;50.890;5.982;2023-02-13T07:36:03;102166.06;;;6.34;73.76
36234;BME280;43467;50.890;5.982;2023-02-13T07:38:29;102168.66;;;6.25;73.70
36234;BME280;43467;50.890;5.982;2023-02-13T07:40:59;102166.06;;;6.33;73.86
36234;BME280;43467;50.890;5.982;2023-02-13T07:43:25;102166.06;;;6.34;73.88
36234;BME280;43467;50.890;5.982;2023-02-13T07:45:51;102166.06;;;6.36;74.12
36234;BME280;43467;50.890;5.982;2023-02-13T07:48:23;102161.69;;;6.42;74.31
36234;BME280;43467;50.890;5.982;2023-02-13T07:50:49;102170.47;;;6.43;73.99
36234;BME280;43467;50.890;5.982;2023-02-13T07:53:14;102173.97;;;6.40;74.29
36234;BME280;43467;50.890;5.982;2023-02-13T07:55:40;102167.81;;;6.44;74.49
36234;BME280;43467;50.890;5.982;2023-02-13T07:58:05;102188.00;;;6.45;74.60
36234;BME280;43467;50.890;5.982;2023-02-13T08:00:31;102171.34;;;6.52;74.87
36234;BME280;43467;50.890;5.982;2023-02-13T08:03:00;102179.25;;;6.57;74.50
36234;BME280;43467;50.890;5.982;2023-02-13T08:05:26;102179.25;;;6.52;74.86
36234;BME280;43467;50.890;5.982;2023-02-13T08:07:52;102191.53;;;6.49;74.91
36234;BME280;43467;50.890;5.982;2023-02-13T08:10:18;102181.03;;;6.55;74.80
36234;BME280;43467;50.890;5.982;2023-02-13T08:13:02;102184.50;;;6.46;74.82
36234;BME280;43467;50.890;5.982;2023-02-13T08:15:27;102199.44;;;6.66;74.67
36234;BME280;43467;50.890;5.982;2023-02-13T08:17:52;102201.22;;;6.73;74.50
36234;BME280;43467;50.890;5.982;2023-02-13T08:20:18;102203.00;;;6.84;74.67
36234;BME280;43467;50.890;5.982;2023-02-13T08:22:43;102198.59;;;6.94;73.92
36234;BME280;43467;50.890;5.982;2023-02-13T08:25:09;102201.25;;;7.01;73.48
36234;BME280;43467;50.890;5.982;2023-02-13T08:27:34;102205.63;;;7.07;73.38
36234;BME280;43467;50.890;5.982;2023-02-13T08:30:00;102189.81;;;7.01;72.78
36234;BME280;43467;50.890;5.982;2023-02-13T08:32:27;102189.84;;;6.99;72.53
36234;BME280;43467;50.890;5.982;2023-02-13T08:34:52;102199.50;;;7.08;72.42
36234;BME280;43467;50.890;5.982;2023-02-13T08:37:18;102206.50;;;7.11;72.63
36234;BME280;43467;50.890;5.982;2023-02-13T08:39:43;102208.28;;;6.96;72.42
36234;BME280;43467;50.890;5.982;2023-02-13T08:42:09;102205.66;;;6.92;72.93
36234;BME280;43467;50.890;5.982;2023-02-13T08:44:34;102218.78;;;6.86;73.15
36234;BME280;43467;50.890;5.982;2023-02-13T08:47:01;102208.25;;;6.87;73.28
36234;BME280;43467;50.890;5.982;2023-02-13T08:49:29;102215.28;;;6.79;73.70
36234;BME280;43467;50.890;5.982;2023-02-13T08:51:54;102210.03;;;6.87;73.57
36234;BME280;43467;50.890;5.982;2023-02-13T08:54:20;102211.75;;;6.77;73.81
36234;BME280;43467;50.890;5.982;2023-02-13T08:56:45;102217.00;;;6.77;73.97
36234;BME280;43467;50.890;5.982;2023-02-13T08:59:10;102216.16;;;6.89;74.09
36234;BME280;43467;50.890;5.982;2023-02-13T09:01:36;102212.63;;;6.85;73.99
36234;BME280;43467;50.890;5.982;2023-02-13T09:04:01;102215.28;;;6.97;74.32
36234;BME280;43467;50.890;5.982;2023-02-13T09:06:27;102224.06;;;7.15;74.12
36234;BME280;43467;50.890;5.982;2023-02-13T09:08:52;102220.56;;;7.25;73.85
36234;BME280;43467;50.890;5.982;2023-02-13T09:11:18;102218.78;;;7.42;73.84
36234;BME280;43467;50.890;5.982;2023-02-13T09:13:44;102220.56;;;7.41;73.34
36234;BME280;43467;50.890;5.982;2023-02-13T09:16:10;102222.28;;;7.47;73.34
36234;BME280;43467;50.890;5.982;2023-02-13T09:18:35;102217.03;;;7.48;73.26
36234;BME280;43467;50.890;5.982;2023-02-13T09:21:06;102223.16;;;7.46;73.47
36234;BME280;43467;50.890;5.982;2023-02-13T09:23:33;102224.06;;;7.48;73.53
36234;BME280;43467;50.890;5.982;2023-02-13T09:26:01;102217.03;;;7.45;74.09
36234;BME280;43467;50.890;5.982;2023-02-13T09:28:28;102223.19;;;7.52;73.95
36234;BME280;43467;50.890;5.982;2023-02-13T09:30:53;102222.28;;;7.52;74.29
36234;BME280;43467;50.890;5.982;2023-02-13T09:33:19;102220.50;;;7.58;74.30
36234;BME280;43467;50.890;5.982;2023-02-13T09:35:44;102229.31;;;7.62;74.31
36234;BME280;43467;50.890;5.982;2023-02-13T09:38:10;102231.06;;;7.61;74.31
36234;BME280;43467;50.890;5.982;2023-02-13T09:40:43;102231.03;;;7.75;74.54
36234;BME280;43467;50.890;5.982;2023-02-13T09:43:19;102223.97;;;7.84;73.75
36234;BME280;43467;50.890;5.982;2023-02-13T09:45:48;102229.22;;;7.92;73.99
36234;BME280;43467;50.890;5.982;2023-02-13T09:48:29;102227.50;;;7.85;73.58
36234;BME280;43467;50.890;5.982;2023-02-13T09:50:57;102223.97;;;7.93;73.78
36234;BME280;43467;50.890;5.982;2023-02-13T09:53:25;102229.22;;;7.97;73.04
36234;BME280;43467;50.890;5.982;2023-02-13T09:56:08;102234.50;;;8.03;73.52
36234;BME280;43467;50.890;5.982;2023-02-13T09:58:42;102228.28;;;8.08;74.04
36234;BME280;43467;50.890;5.982;2023-02-13T10:01:18;102239.69;;;8.18;73.57
36234;BME280;43467;50.890;5.982;2023-02-13T10:06:38;102236.13;;;8.28;72.80
36234;BME280;43467;50.890;5.982;2023-02-13T10:10:21;102231.72;;;8.44;72.34
36234;BME280;43467;50.890;5.982;2023-02-13T10:15:47;102235.97;;;8.64;71.60
36234;BME280;43467;50.890;5.982;2023-02-13T10:18:19;102224.41;;;8.80;71.14
36234;BME280;43467;50.890;5.982;2023-02-13T10:20:53;102231.41;;;8.92;71.10
36234;BME280;43467;50.890;5.982;2023-02-13T10:23:27;102234.91;;;8.96;70.78
36234;BME280;43467;50.890;5.982;2023-02-13T10:26:03;102231.38;;;8.94;71.09
36234;BME280;43467;50.890;5.982;2023-02-13T10:31:38;102230.41;;;9.07;70.67
36234;BME280;43467;50.890;5.982;2023-02-13T10:34:04;102242.69;;;9.15;70.70
36234;BME280;43467;50.890;5.982;2023-02-13T10:36:39;102236.47;;;9.19;70.73
36234;BME280;43467;50.890;5.982;2023-02-13T10:39:26;102234.66;;;9.27;70.49
36234;BME280;43467;50.890;5.982;2023-02-13T10:44:41;102229.25;;;9.38;70.50
36234;BME280;43467;50.890;5.982;2023-02-13T10:52:34;102225.56;;;9.57;70.15
36234;BME280;43467;50.890;5.982;2023-02-13T11:00:54;102212.06;;;9.83;69.78
36234;BME280;43467;50.890;5.982;2023-02-13T11:03:23;102212.84;;;9.91;69.53
36234;BME280;43467;50.890;5.982;2023-02-13T11:05:49;102202.25;;;9.91;69.79
36234;BME280;43467;50.890;5.982;2023-02-13T11:08:39;102206.50;;;10.04;69.72
36234;BME280;43467;50.890;5.982;2023-02-13T11:11:57;102200.34;;;10.04;69.68
36234;BME280;43467;50.890;5.982;2023-02-13T11:14:20;102198.47;;;10.13;69.58
36234;BME280;43467;50.890;5.982;2023-02-13T11:16:55;102198.41;;;10.21;69.85
36234;BME280;43467;50.890;5.982;2023-02-13T11:22:04;102187.66;;;10.32;70.20
36234;BME280;43467;50.890;5.982;2023-02-13T11:24:31;102185.00;;;10.33;69.74
36234;BME280;43467;50.890;5.982;2023-02-13T11:27:06;102186.69;;;10.39;69.35
36234;BME280;43467;50.890;5.982;2023-02-13T11:29:36;102176.94;;;10.42;69.75
36234;BME280;43467;50.890;5.982;2023-02-13T11:34:29;102172.28;;;10.58;69.72
36234;BME280;43467;50.890;5.982;2023-02-13T11:37:19;102172.19;;;10.64;69.66
36234;BME280;43467;50.890;5.982;2023-02-13T11:39:47;102172.13;;;10.68;69.78
36234;BME280;43467;50.890;5.982;2023-02-13T11:44:49;102167.63;;;10.75;69.31
36234;BME280;43467;50.890;5.982;2023-02-13T11:47:15;102163.13;;;10.79;69.34
36234;BME280;43467;50.890;5.982;2023-02-13T11:49:53;102155.06;;;10.88;69.55
36234;BME280;43467;50.890;5.982;2023-02-13T11:52:27;102162.06;;;10.89;69.61
36234;BME280;43467;50.890;5.982;2023-02-13T11:54:58;102154.13;;;10.90;69.25
36234;BME280;43467;50.890;5.982;2023-02-13T11:57:31;102155.81;;;10.94;68.80
36234;BME280;43467;50.890;5.982;2023-02-13T11:59:57;102150.38;;;11.02;69.45
36234;BME280;43467;50.890;5.982;2023-02-13T12:02:27;102151.19;;;11.07;69.54
36234;BME280;43467;50.890;5.982;2023-02-13T12:05:13;102136.97;;;11.11;69.28
36234;BME280;43467;50.890;5.982;2023-02-13T12:07:40;102143.00;;;11.21;69.32
36234;BME280;43467;50.890;5.982;2023-02-13T12:10:32;102144.63;;;11.28;69.20
36234;BME280;43467;50.890;5.982;2023-02-13T12:13:05;102138.31;;;11.33;68.75
36234;BME280;43467;50.890;5.982;2023-02-13T12:15:37;102137.31;;;11.40;68.02
36234;BME280;43467;50.890;5.982;2023-02-13T12:26:41;102132.25;;;11.74;68.00
36234;BME280;43467;50.890;5.982;2023-02-13T12:35:08;102125.69;;;11.92;66.23
36234;BME280;43467;50.890;5.982;2023-02-13T12:45:35;102116.28;;;12.17;66.61
36234;BME280;43467;50.890;5.982;2023-02-13T13:02:17;102101.97;;;12.61;61.24
36234;BME280;43467;50.890;5.982;2023-02-13T13:04:46;102093.09;;;12.62;60.64
36234;BME280;43467;50.890;5.982;2023-02-13T13:16:08;102088.94;;;12.86;58.85
36234;BME280;43467;50.890;5.982;2023-02-13T13:18:57;102095.94;;;12.90;58.84
36234;BME280;43467;50.890;5.982;2023-02-13T13:21:37;102088.59;;;12.99;59.71
36234;BME280;43467;50.890;5.982;2023-02-13T13:24:17;102089.22;;;13.09;60.17
36234;BME280;43467;50.890;5.982;2023-02-13T13:26:48;102088.09;;;13.19;60.58
36234;BME280;43467;50.890;5.982;2023-02-13T13:29:24;102096.78;;;13.26;60.18
36234;BME280;43467;50.890;5.982;2023-02-13T13:32:00;102084.78;;;13.42;61.22
36234;BME280;43467;50.890;5.982;2023-02-13T13:34:29;102083.66;;;13.50;59.47
36234;BME280;43467;50.890;5.982;2023-02-13T13:37:22;102081.69;;;13.57;58.93
36234;BME280;43467;50.890;5.982;2023-02-13T13:39:56;102074.69;;;13.55;58.90
36234;BME280;43467;50.890;5.982;2023-02-13T13:47:59;102071.66;;;13.67;59.06
36234;BME280;43467;50.890;5.982;2023-02-13T13:50:32;102069.75;;;13.72;58.62
36234;BME280;43467;50.890;5.982;2023-02-13T13:53:19;102062.50;;;13.77;59.13
36234;BME280;43467;50.890;5.982;2023-02-13T14:03:46;102058.16;;;14.02;58.17
36234;BME280;43467;50.890;5.982;2023-02-13T14:06:15;102053.63;;;14.06;57.74
36234;BME280;43467;50.890;5.982;2023-02-13T14:13:48;102063.03;;;14.17;57.84
36234;BME280;43467;50.890;5.982;2023-02-13T14:16:43;102059.53;;;14.15;57.48
36234;BME280;43467;50.890;5.982;2023-02-13T14:19:33;102062.09;;;14.18;57.77
36234;BME280;43467;50.890;5.982;2023-02-13T14:22:35;102054.94;;;14.20;57.11
36234;BME280;43467;50.890;5.982;2023-02-13T14:25:23;102047.75;;;14.22;56.31
36234;BME280;43467;50.890;5.982;2023-02-13T14:28:02;102052.09;;;14.26;57.13
36234;BME280;43467;50.890;5.982;2023-02-13T14:32:56;102043.66;;;14.40;57.62
36234;BME280;43467;50.890;5.982;2023-02-13T14:35:31;102041.56;;;14.50;58.03
36234;BME280;43467;50.890;5.982;2023-02-13T14:38:00;102042.94;;;14.61;56.95
36234;BME280;43467;50.890;5.982;2023-02-13T14:40:30;102026.50;;;14.49;56.85
36234;BME280;43467;50.890;5.982;2023-02-13T14:43:20;102044.63;;;14.64;56.00
36234;BME280;43467;50.890;5.982;2023-02-13T14:45:56;102039.97;;;14.70;56.16
36234;BME280;43467;50.890;5.982;2023-02-13T14:48:34;102025.81;;;14.68;56.58
36234;BME280;43467;50.890;5.982;2023-02-13T14:51:02;102033.78;;;14.70;56.31
36234;BME280;43467;50.890;5.982;2023-02-13T14:53:44;102036.56;;;14.67;56.50
36234;BME280;43467;50.890;5.982;2023-02-13T14:56:13;102026.09;;;14.61;56.92
36234;BME280;43467;50.890;5.982;2023-02-13T14:58:49;102025.28;;;14.59;56.99
36234;BME280;43467;50.890;5.982;2023-02-13T15:01:29;102023.41;;;14.61;56.96
36234;BME280;43467;50.890;5.982;2023-02-13T15:04:25;101990.25;;;14.43;56.10
36234;BME280;43467;50.890;5.982;2023-02-13T15:06:54;102019.75;;;14.63;55.89
36234;BME280;43467;50.890;5.982;2023-02-13T15:09:37;102012.59;;;14.65;56.05
36234;BME280;43467;50.890;5.982;2023-02-13T15:12:23;102013.59;;;14.63;55.98
36234;BME280;43467;50.890;5.982;2023-02-13T15:14:50;102017.97;;;14.64;57.01
36234;BME280;43467;50.890;5.982;2023-02-13T15:17:25;102018.91;;;14.63;56.61
36234;BME280;43467;50.890;5.982;2023-02-13T15:19:57;102023.63;;;14.55;56.34
36234;BME280;43467;50.890;5.982;2023-02-13T15:22:31;102020.34;;;14.47;56.42
36234;BME280;43467;50.890;5.982;2023-02-13T15:24:57;102018.94;;;14.35;56.62